Terminal Aerodrome Forecast
Issued by NWS Cleveland, OH

Home | Current Version | Previous Version | Text Only | Print | Product List | Glossary Off
Versions: 1 2 3 4 5 6 7 8 9 10 11 12 13 14 15 16 17 18 19 20

000
FTUS41 KCLE 181700
TAFTOL
TAF
KTOL 181738Z 1818/1918 26010KT P6SM OVC025
     FM182100 27006KT P6SM OVC035
     FM190200 27006KT P6SM OVC025
     FM190600 29004KT P6SM OVC015
     FM191300 32004KT P6SM OVC012=

USA.gov is the U.S. government's official web portal to all federal, state and local government web resources and services.